createdAt,value
2018-11-28T00:00:32.005Z,26.35
2018-11-28T00:03:02.305Z,26.48
2018-11-28T00:05:31.699Z,30.10
2018-11-28T00:08:01.070Z,26.33
2018-11-28T00:10:30.567Z,28.45
2018-11-28T00:13:00.209Z,22.93
2018-11-28T00:15:29.788Z,25.52
2018-11-28T00:17:59.282Z,26.62
2018-11-28T00:20:28.734Z,23.30
2018-11-28T00:22:58.662Z,25.27
2018-11-28T00:25:28.175Z,22.75
2018-11-28T00:27:57.521Z,25.05
2018-11-28T00:30:27.030Z,21.82
2018-11-28T00:32:56.398Z,24.27
2018-11-28T00:35:25.905Z,24.50
2018-11-28T00:37:55.269Z,21.52
2018-11-28T00:40:24.778Z,34.45
2018-11-28T00:42:54.226Z,21.70
2018-11-28T00:45:24.595Z,22.25
2018-11-28T00:47:53.993Z,22.95
2018-11-28T00:50:25.337Z,19.62
2018-11-28T00:52:54.771Z,20.30
2018-11-28T00:57:58.672Z,24.80
2018-11-28T01:00:28.084Z,21.45
2018-11-28T01:02:57.508Z,20.68
2018-11-28T01:05:26.885Z,21.93
2018-11-28T01:07:56.538Z,21.40
2018-11-28T01:10:26.119Z,21.68
2018-11-28T01:12:55.604Z,20.92
2018-11-28T01:15:24.937Z,18.40
2018-11-28T01:17:55.373Z,17.85
2018-11-28T01:20:24.763Z,18.65
2018-11-28T01:22:54.322Z,21.73
2018-11-28T01:25:23.729Z,23.47
2018-11-28T01:27:53.187Z,23.47
2018-11-28T01:30:23.681Z,21.37
2018-11-28T01:32:53.175Z,27.50
2018-11-28T01:35:23.062Z,28.80
2018-11-28T01:37:52.459Z,33.30
2018-11-28T01:40:24.562Z,31.77
2018-11-28T01:42:54.170Z,35.13
2018-11-28T01:45:24.017Z,27.07
2018-11-28T01:47:53.404Z,33.60
2018-11-28T01:50:22.856Z,34.63
2018-11-28T01:52:52.227Z,29.77
2018-11-28T01:55:22.419Z,27.80
2018-11-28T01:57:52.021Z,31.27
2018-11-28T02:00:25.437Z,29.57
2018-11-28T02:02:57.057Z,31.10
2018-11-28T02:05:26.442Z,33.75
2018-11-28T02:07:55.877Z,36.98
2018-11-28T02:10:25.242Z,40.70
2018-11-28T02:12:53.735Z,37.83
2018-11-28T02:15:26.629Z,39.65
2018-11-28T02:17:56.745Z,40.98
2018-11-28T02:20:26.135Z,38.95
2018-11-28T02:22:55.517Z,35.65
2018-11-28T02:25:24.893Z,37.25
2018-11-28T02:28:04.237Z,44.58
2018-11-28T02:30:33.626Z,40.58
2018-11-28T02:33:03.111Z,36.17
2018-11-28T02:35:32.498Z,41.00
2018-11-28T02:38:01.860Z,45.03
2018-11-28T02:40:31.281Z,42.40
2018-11-28T02:43:00.636Z,42.20
2018-11-28T02:45:30.042Z,37.05
2018-11-28T02:47:59.388Z,40.45
2018-11-28T02:50:28.757Z,43.55
2018-11-28T02:52:58.093Z,38.63
2018-11-28T02:55:27.498Z,43.20
2018-11-28T02:57:57.080Z,47.25
2018-11-28T03:00:26.739Z,40.43
2018-11-28T03:02:56.136Z,44.00
2018-11-28T03:05:25.514Z,41.80
2018-11-28T03:07:54.881Z,39.25
2018-11-28T03:10:24.254Z,41.20
2018-11-28T03:12:53.640Z,35.85
2018-11-28T03:15:37.946Z,41.83
2018-11-28T03:18:08.314Z,43.13
2018-11-28T03:20:37.770Z,35.55
2018-11-28T03:23:07.643Z,37.17
2018-11-28T03:25:37.065Z,37.63
2018-11-28T03:28:06.422Z,39.27
2018-11-28T03:30:35.810Z,37.65
2018-11-28T03:33:05.372Z,36.95
2018-11-28T03:35:34.754Z,39.78
2018-11-28T03:38:04.296Z,34.50
2018-11-28T03:40:33.663Z,35.28
2018-11-28T03:43:03.018Z,38.33
2018-11-28T03:45:32.411Z,40.00
2018-11-28T03:48:01.744Z,33.23
2018-11-28T03:50:31.134Z,31.82
2018-11-28T03:53:00.497Z,35.33
2018-11-28T03:55:29.841Z,36.20
2018-11-28T03:57:59.237Z,34.65
2018-11-28T04:00:28.613Z,33.78
2018-11-28T04:02:58.003Z,29.18
2018-11-28T04:05:27.383Z,35.13
2018-11-28T04:07:56.818Z,32.30
2018-11-28T04:10:26.183Z,35.50
2018-11-28T04:12:55.572Z,27.90
2018-11-28T04:15:24.926Z,28.47
2018-11-28T04:17:54.331Z,28.00
2018-11-28T04:20:24.034Z,26.35
2018-11-28T04:22:53.406Z,30.30
2018-11-28T04:25:23.425Z,32.13
2018-11-28T04:27:52.991Z,30.35
2018-11-28T04:30:23.357Z,32.08
2018-11-28T04:32:53.805Z,35.35
2018-11-28T04:35:23.156Z,32.35
2018-11-28T04:37:52.501Z,28.00
2018-11-28T04:40:22.128Z,31.93
2018-11-28T04:42:51.513Z,28.60
2018-11-28T04:45:22.519Z,37.23
2018-11-28T04:47:52.846Z,36.23
2018-11-28T04:50:22.178Z,34.90
2018-11-28T04:52:51.582Z,33.95
2018-11-28T04:55:21.126Z,30.80
2018-11-28T04:57:50.521Z,32.75
2018-11-28T05:00:22.037Z,32.25
2018-11-28T05:02:51.838Z,32.75
2018-11-28T05:05:21.211Z,32.28
2018-11-28T05:07:51.413Z,31.30
2018-11-28T05:10:22.719Z,32.55
2018-11-28T05:12:52.535Z,30.17
2018-11-28T05:15:23.534Z,29.42
2018-11-28T05:17:53.694Z,35.15
2018-11-28T05:20:27.877Z,32.75
2018-11-28T05:22:57.229Z,31.17
2018-11-28T05:25:28.167Z,32.42
2018-11-28T05:27:57.618Z,32.03
2018-11-28T05:30:28.738Z,30.45
2018-11-28T05:32:58.144Z,35.70
2018-11-28T05:35:40.227Z,32.17
2018-11-28T05:38:13.740Z,31.35
2018-11-28T05:40:43.906Z,27.58
2018-11-28T05:43:13.334Z,32.30
2018-11-28T05:45:42.667Z,33.35
2018-11-28T05:48:12.036Z,29.42
2018-11-28T05:50:41.414Z,31.00
2018-11-28T05:53:10.783Z,38.42
2018-11-28T05:55:40.182Z,31.93
2018-11-28T05:58:09.589Z,34.55
2018-11-28T06:00:39.814Z,35.10
2018-11-28T06:03:12.797Z,36.23
2018-11-28T06:05:42.895Z,36.75
2018-11-28T06:08:12.241Z,34.55
2018-11-28T06:10:41.700Z,34.03
2018-11-28T06:13:11.050Z,34.58
2018-11-28T06:15:40.479Z,34.30
2018-11-28T06:18:10.074Z,36.30
2018-11-28T06:20:39.542Z,34.83
2018-11-28T06:23:08.926Z,29.63
2018-11-28T06:25:38.317Z,32.03
2018-11-28T06:28:07.807Z,32.05
2018-11-28T06:30:37.327Z,29.87
2018-11-28T06:33:06.999Z,32.85
2018-11-28T06:35:36.403Z,35.33
2018-11-28T06:38:05.769Z,36.88
2018-11-28T06:40:35.159Z,36.73
2018-11-28T06:43:04.514Z,36.25
2018-11-28T06:45:33.918Z,36.55
2018-11-28T06:48:03.437Z,31.87
2018-11-28T06:50:32.836Z,36.75
2018-11-28T06:53:02.168Z,31.70
2018-11-28T06:55:31.555Z,32.73
2018-11-28T06:58:01.020Z,33.85
2018-11-28T07:00:30.452Z,37.50
2018-11-28T07:02:59.798Z,33.83
2018-11-28T07:05:29.222Z,35.78
2018-11-28T07:07:58.585Z,33.08
2018-11-28T07:10:27.945Z,31.45
2018-11-28T07:12:57.251Z,35.73
2018-11-28T07:15:27.235Z,32.60
2018-11-28T07:18:01.458Z,34.13
2018-11-28T07:20:31.302Z,35.33
2018-11-28T07:23:01.057Z,35.40
2018-11-28T07:25:30.499Z,31.07
2018-11-28T07:27:59.855Z,34.95
2018-11-28T07:30:29.183Z,32.60
2018-11-28T07:32:58.743Z,36.83
2018-11-28T07:35:28.087Z,30.35
2018-11-28T07:37:57.414Z,29.95
2018-11-28T07:40:27.223Z,31.85
2018-11-28T07:43:02.417Z,30.02
2018-11-28T07:45:31.792Z,26.77
2018-11-28T07:48:01.115Z,24.65
2018-11-28T07:50:30.510Z,29.57
2018-11-28T07:53:00.709Z,22.42
2018-11-28T07:55:30.150Z,26.80
2018-11-28T07:57:59.511Z,28.90
2018-11-28T08:00:28.931Z,27.67
2018-11-28T08:02:58.282Z,26.80
2018-11-28T08:05:27.637Z,28.25
2018-11-28T08:07:57.059Z,24.37
2018-11-28T08:10:26.981Z,23.50
2018-11-28T08:12:57.376Z,28.03
2018-11-28T08:15:27.004Z,27.00
2018-11-28T08:17:56.201Z,30.52
2018-11-28T08:20:25.612Z,26.68
2018-11-28T08:22:54.937Z,26.20
2018-11-28T08:25:27.780Z,28.07
2018-11-28T08:27:53.732Z,26.73
2018-11-28T08:30:25.754Z,26.10
2018-11-28T08:32:55.961Z,26.60
2018-11-28T08:35:25.519Z,29.00
2018-11-28T08:37:54.931Z,22.03
2018-11-28T08:40:25.381Z,21.63
2018-11-28T08:42:56.046Z,26.77
2018-11-28T08:45:25.516Z,27.95
2018-11-28T08:47:58.767Z,25.43
2018-11-28T08:50:30.499Z,26.17
2018-11-28T08:52:59.871Z,28.80
2018-11-28T08:55:29.259Z,23.80
2018-11-28T08:57:58.593Z,23.40
2018-11-28T09:00:28.146Z,22.30
2018-11-28T09:02:58.418Z,28.80
2018-11-28T09:05:27.842Z,26.95
2018-11-28T09:07:57.248Z,24.30
2018-11-28T09:10:26.646Z,25.97
2018-11-28T09:12:56.017Z,28.00
2018-11-28T09:15:27.262Z,26.23
2018-11-28T09:17:56.924Z,25.75
2018-11-28T09:20:26.291Z,24.30
2018-11-28T09:22:55.669Z,22.30
2018-11-28T09:25:25.031Z,23.47
2018-11-28T09:27:56.658Z,22.10
2018-11-28T09:30:26.008Z,22.20
2018-11-28T09:32:55.374Z,27.03
2018-11-28T09:35:24.686Z,24.70
2018-11-28T09:37:54.041Z,21.50
2018-11-28T09:40:26.220Z,25.50
2018-11-28T09:42:57.535Z,23.13
2018-11-28T09:45:27.153Z,25.17
2018-11-28T09:47:56.534Z,25.57
2018-11-28T09:50:26.644Z,22.43
2018-11-28T09:52:56.005Z,24.30
2018-11-28T09:55:27.139Z,25.33
2018-11-28T09:57:57.163Z,27.17
2018-11-28T10:00:27.419Z,23.50
2018-11-28T10:02:58.590Z,23.23
2018-11-28T10:05:29.802Z,27.90
2018-11-28T10:07:59.233Z,26.30
2018-11-28T10:10:28.618Z,26.27
2018-11-28T10:12:58.035Z,20.93
2018-11-28T10:15:28.219Z,21.60
2018-11-28T10:17:57.554Z,25.57
2018-11-28T10:20:26.866Z,27.10
2018-11-28T10:22:56.210Z,25.17
2018-11-28T10:25:26.426Z,26.67
2018-11-28T10:27:58.143Z,27.33
2018-11-28T10:30:29.505Z,23.00
2018-11-28T10:32:58.848Z,23.20
2018-11-28T10:35:28.208Z,22.27
2018-11-28T10:37:57.664Z,28.73
2018-11-28T10:40:27.029Z,26.60
2018-11-28T10:42:57.559Z,25.23
2018-11-28T10:45:27.935Z,28.90
2018-11-28T10:47:57.338Z,25.32
2018-11-28T10:50:26.728Z,23.97
2018-11-28T10:52:56.043Z,23.17
2018-11-28T10:55:26.260Z,26.17
2018-11-28T10:57:55.599Z,26.30
2018-11-28T11:00:32.976Z,25.87
2018-11-28T11:03:07.482Z,26.27
2018-11-28T11:05:42.058Z,26.13
2018-11-28T11:08:16.692Z,26.10
2018-11-28T11:10:51.267Z,23.75
2018-11-28T11:13:25.829Z,24.70
2018-11-28T11:15:59.059Z,24.40
2018-11-28T11:18:29.000Z,26.80
2018-11-28T11:20:58.369Z,25.77
2018-11-28T11:23:27.699Z,26.90
2018-11-28T11:25:57.080Z,27.77
2018-11-28T11:28:26.471Z,25.65
2018-11-28T11:30:55.836Z,25.20
2018-11-28T11:33:25.183Z,25.27
2018-11-28T11:35:54.582Z,23.92
2018-11-28T11:38:23.907Z,24.07
2018-11-28T11:40:53.307Z,23.47
2018-11-28T11:43:22.651Z,23.95
2018-11-28T11:45:52.066Z,23.35
2018-11-28T11:48:21.503Z,24.00
2018-11-28T11:50:50.929Z,24.90
2018-11-28T11:53:20.322Z,22.95
2018-11-28T11:55:49.747Z,24.20
2018-11-28T11:58:19.115Z,26.70
2018-11-28T12:00:49.279Z,22.82
2018-11-28T12:03:20.692Z,23.10
2018-11-28T12:05:58.383Z,25.50
2018-11-28T12:08:29.019Z,22.90
2018-11-28T12:11:01.229Z,26.67
2018-11-28T12:13:34.631Z,23.67
2018-11-28T12:16:04.600Z,22.70
2018-11-28T12:18:34.202Z,24.03
2018-11-28T12:21:05.818Z,24.23
2018-11-28T12:23:35.430Z,22.37
2018-11-28T12:26:04.853Z,22.73
2018-11-28T12:28:34.276Z,21.57
2018-11-28T12:31:03.677Z,20.90
2018-11-28T12:33:33.022Z,20.50
2018-11-28T12:36:02.415Z,20.13
2018-11-28T12:38:35.954Z,21.30
2018-11-28T12:41:06.039Z,21.37
2018-11-28T12:43:35.519Z,20.90
2018-11-28T12:46:05.065Z,19.07
2018-11-28T12:48:34.474Z,19.57
2018-11-28T12:51:03.863Z,20.77
2018-11-28T12:53:33.206Z,22.32
2018-11-28T12:56:02.582Z,22.45
2018-11-28T12:58:31.962Z,23.25
2018-11-28T13:01:01.374Z,21.57
2018-11-28T13:03:30.732Z,23.15
2018-11-28T13:06:00.106Z,33.53
2018-11-28T13:08:29.437Z,19.95
2018-11-28T13:10:58.823Z,18.87
2018-11-28T13:13:28.150Z,20.23
2018-11-28T13:15:57.486Z,21.80
2018-11-28T13:18:26.855Z,29.40
2018-11-28T13:20:56.178Z,21.93
2018-11-28T13:23:25.527Z,20.40
2018-11-28T13:25:54.873Z,20.50
2018-11-28T13:28:24.229Z,20.65
2018-11-28T13:30:53.545Z,19.07
2018-11-28T13:33:22.901Z,19.50
2018-11-28T13:35:52.226Z,20.35
2018-11-28T13:40:50.943Z,18.32
2018-11-28T13:43:20.269Z,20.40
2018-11-28T13:45:50.018Z,19.10
2018-11-28T13:48:19.413Z,20.37
2018-11-28T13:50:49.687Z,20.87
2018-11-28T13:53:18.548Z,20.17
2018-11-28T13:56:57.280Z,17.30
2018-11-28T13:58:22.911Z,19.00
2018-11-28T14:00:52.257Z,19.12
2018-11-28T14:03:21.675Z,20.75
2018-11-28T14:05:51.065Z,20.90
2018-11-28T14:08:20.414Z,18.42
2018-11-28T14:10:49.768Z,20.65
2018-11-28T14:13:19.171Z,20.77
2018-11-28T14:15:48.526Z,21.90
2018-11-28T14:18:19.022Z,22.02
2018-11-28T14:20:48.401Z,19.05
2018-11-28T14:23:17.785Z,21.80
2018-11-28T14:25:47.141Z,22.00
2018-11-28T14:28:16.531Z,21.48
2018-11-28T14:30:46.542Z,24.02
2018-11-28T14:33:15.874Z,21.37
2018-11-28T14:35:45.307Z,20.25
2018-11-28T14:38:14.679Z,21.40
2018-11-28T14:40:44.140Z,21.52
2018-11-28T14:43:13.518Z,20.40
2018-11-28T14:45:42.918Z,23.10
2018-11-28T14:48:12.239Z,25.00
2018-11-28T14:50:41.633Z,25.08
2018-11-28T14:53:10.962Z,24.60
2018-11-28T14:55:41.071Z,27.00
2018-11-28T14:58:11.829Z,25.55
2018-11-28T15:00:41.605Z,26.17
2018-11-28T15:03:18.489Z,23.27
2018-11-28T15:06:03.126Z,25.20
2018-11-28T15:08:32.976Z,24.65
2018-11-28T15:11:08.360Z,25.05
2018-11-28T15:13:38.090Z,26.50
2018-11-28T15:16:07.595Z,27.13
2018-11-28T15:18:36.957Z,25.88
2018-11-28T15:21:07.341Z,26.90
2018-11-28T15:23:36.786Z,26.55
2018-11-28T15:26:06.269Z,28.73
2018-11-28T15:28:35.627Z,30.90
2018-11-28T15:31:05.242Z,33.08
2018-11-28T15:33:34.631Z,28.60
2018-11-28T15:36:04.062Z,28.40
2018-11-28T15:38:33.539Z,29.12
2018-11-28T15:41:02.935Z,31.35
2018-11-28T15:43:32.270Z,31.05
2018-11-28T15:46:01.663Z,34.03
2018-11-28T15:48:31.003Z,34.45
2018-11-28T15:51:00.385Z,34.50
2018-11-28T15:53:29.765Z,39.10
2018-11-28T15:55:59.113Z,40.83
2018-11-28T15:58:28.447Z,35.45
2018-11-28T16:00:58.122Z,30.85
2018-11-28T16:03:27.652Z,32.45
2018-11-28T16:05:57.173Z,30.00
2018-11-28T16:08:26.539Z,30.55
2018-11-28T16:10:56.005Z,31.95
2018-11-28T16:13:25.376Z,31.12
2018-11-28T16:15:55.874Z,29.98
2018-11-28T16:18:25.262Z,31.33
2018-11-28T16:20:54.600Z,31.50
2018-11-28T16:23:24.021Z,31.70
2018-11-28T16:25:53.379Z,31.70
2018-11-28T16:28:22.959Z,33.35
2018-11-28T16:30:52.334Z,30.75
2018-11-28T16:33:21.700Z,37.55
2018-11-28T16:35:51.146Z,33.60
2018-11-28T16:38:20.501Z,33.73
2018-11-28T16:40:49.838Z,33.75
2018-11-28T16:43:19.178Z,30.15
2018-11-28T16:45:48.549Z,33.98
2018-11-28T16:48:18.008Z,31.07
2018-11-28T16:50:47.387Z,33.40
2018-11-28T16:53:16.745Z,35.95
2018-11-28T16:55:46.094Z,32.78
2018-11-28T16:58:15.474Z,35.65
2018-11-28T17:00:45.125Z,31.30
2018-11-28T17:03:14.511Z,31.48
2018-11-28T17:05:43.853Z,32.55
2018-11-28T17:08:13.208Z,34.20
2018-11-28T17:10:42.570Z,34.48
2018-11-28T17:13:11.938Z,34.63
2018-11-28T17:15:41.306Z,32.67
2018-11-28T17:18:10.890Z,32.53
2018-11-28T17:20:42.197Z,31.07
2018-11-28T17:23:11.561Z,31.62
2018-11-28T17:25:40.981Z,34.98
2018-11-28T17:28:10.302Z,33.05
2018-11-28T17:30:39.717Z,34.30
2018-11-28T17:33:09.069Z,33.28
2018-11-28T17:35:38.470Z,36.10
2018-11-28T17:38:08.051Z,31.85
2018-11-28T17:40:37.436Z,35.83
2018-11-28T17:43:07.676Z,36.28
2018-11-28T17:45:37.141Z,33.25
2018-11-28T17:48:07.242Z,34.55
2018-11-28T17:50:36.621Z,33.15
2018-11-28T17:53:13.234Z,36.60
2018-11-28T17:55:49.006Z,36.20
2018-11-28T17:58:18.338Z,38.17
2018-11-28T18:00:47.778Z,37.88
2018-11-28T18:03:17.245Z,33.28
2018-11-28T18:05:46.639Z,36.10
2018-11-28T18:08:46.623Z,33.00
2018-11-28T18:11:16.322Z,32.55
2018-11-28T18:13:45.815Z,40.15
2018-11-28T18:16:15.241Z,32.67
2018-11-28T18:18:44.613Z,34.10
2018-11-28T18:21:14.015Z,35.35
2018-11-28T18:23:43.382Z,37.05
2018-11-28T18:26:14.046Z,34.78
2018-11-28T18:28:43.416Z,43.15
2018-11-28T18:31:12.846Z,35.25
2018-11-28T18:33:42.255Z,37.28
2018-11-28T18:36:11.641Z,44.95
2018-11-28T18:38:41.008Z,34.73
2018-11-28T18:41:10.422Z,32.48
2018-11-28T18:43:39.838Z,37.78
2018-11-28T18:46:09.260Z,36.60
2018-11-28T18:48:38.639Z,40.00
2018-11-28T18:51:08.032Z,38.15
2018-11-28T18:53:37.419Z,35.88
2018-11-28T18:56:06.994Z,36.73
2018-11-28T18:58:36.372Z,35.88
2018-11-28T19:01:05.762Z,40.55
2018-11-28T19:03:35.159Z,35.55
2018-11-28T19:06:04.537Z,33.75
2018-11-28T19:08:34.022Z,33.85
2018-11-28T19:11:03.749Z,33.50
2018-11-28T19:13:32.785Z,43.90
2018-11-28T19:16:02.114Z,34.20
2018-11-28T19:18:31.514Z,36.00
2018-11-28T19:21:00.861Z,38.67
2018-11-28T19:23:30.246Z,33.63
2018-11-28T19:25:59.603Z,31.68
2018-11-28T19:28:29.170Z,37.03
2018-11-28T19:30:58.507Z,37.05
2018-11-28T19:33:27.874Z,37.25
2018-11-28T19:35:57.251Z,37.50
2018-11-28T19:38:26.629Z,36.75
2018-11-28T19:41:00.705Z,33.35
2018-11-28T19:43:30.106Z,36.48
2018-11-28T19:45:59.462Z,35.13
2018-11-28T19:48:28.828Z,34.43
2018-11-28T19:50:58.172Z,35.68
2018-11-28T19:53:27.533Z,32.73
2018-11-28T19:55:56.948Z,38.60
2018-11-28T19:58:26.318Z,34.23
2018-11-28T20:00:55.668Z,36.73
2018-11-28T20:03:25.052Z,37.88
2018-11-28T20:05:54.406Z,42.83
2018-11-28T20:08:24.186Z,38.42
2018-11-28T20:10:53.582Z,40.67
2018-11-28T20:13:23.072Z,38.45
2018-11-28T20:15:53.182Z,40.25
2018-11-28T20:18:23.808Z,39.25
2018-11-28T20:20:53.247Z,36.33
2018-11-28T20:23:22.590Z,39.45
2018-11-28T20:25:51.970Z,39.98
2018-11-28T20:28:21.328Z,41.80
2018-11-28T20:30:50.673Z,39.00
2018-11-28T20:33:20.104Z,36.90
2018-11-28T20:35:50.129Z,36.70
2018-11-28T20:38:28.203Z,37.33
2018-11-28T20:40:57.554Z,38.00
2018-11-28T20:43:26.915Z,40.52
2018-11-28T20:45:56.291Z,37.70
2018-11-28T20:48:25.694Z,35.68
2018-11-28T20:50:55.101Z,37.08
2018-11-28T20:53:24.475Z,37.35
2018-11-28T20:55:53.807Z,40.55
2018-11-28T20:58:23.141Z,37.08
2018-11-28T21:00:52.534Z,36.50
2018-11-28T21:03:21.890Z,35.60
2018-11-28T21:05:51.262Z,35.10
2018-11-28T21:08:20.719Z,35.10
2018-11-28T21:10:50.075Z,35.95
2018-11-28T21:13:19.395Z,35.55
2018-11-28T21:15:48.775Z,35.20
2018-11-28T21:18:18.345Z,35.68
2018-11-28T21:20:47.827Z,36.10
2018-11-28T21:23:18.585Z,43.10
2018-11-28T21:25:48.369Z,36.50
2018-11-28T21:28:17.919Z,36.13
2018-11-28T21:30:47.299Z,36.28
2018-11-28T21:33:16.644Z,33.58
2018-11-28T21:35:49.541Z,40.10
2018-11-28T21:38:18.955Z,39.10
2018-11-28T21:40:48.365Z,33.88
2018-11-28T21:43:17.723Z,38.13
2018-11-28T21:45:47.157Z,32.05
2018-11-28T21:48:16.530Z,33.48
2018-11-28T21:50:45.900Z,34.13
2018-11-28T21:53:15.271Z,35.17
2018-11-28T21:55:44.683Z,33.45
2018-11-28T21:58:14.059Z,34.08
2018-11-28T22:00:43.509Z,34.88
2018-11-28T22:03:12.865Z,31.77
2018-11-28T22:05:42.279Z,36.08
2018-11-28T22:08:11.643Z,33.85
2018-11-28T22:10:41.033Z,32.45
2018-11-28T22:13:10.399Z,32.60
2018-11-28T22:15:39.800Z,34.92
2018-11-28T22:18:09.170Z,33.23
2018-11-28T22:20:38.673Z,37.98
2018-11-28T22:23:08.096Z,40.40
2018-11-28T22:25:37.446Z,34.30
2018-11-28T22:28:07.485Z,39.50
2018-11-28T22:30:36.849Z,42.30
2018-11-28T22:33:07.110Z,34.03
2018-11-28T22:35:36.552Z,33.42
2018-11-28T22:38:06.394Z,37.13
2018-11-28T22:40:35.746Z,38.42
2018-11-28T22:43:05.160Z,32.15
2018-11-28T22:45:35.175Z,32.28
2018-11-28T22:48:04.673Z,29.37
2018-11-28T22:50:34.026Z,33.38
2018-11-28T22:53:03.364Z,29.63
2018-11-28T22:55:32.710Z,34.23
2018-11-28T22:58:02.205Z,32.23
2018-11-28T23:00:36.874Z,33.70
2018-11-28T23:03:07.869Z,30.23
2018-11-28T23:05:45.138Z,32.28
2018-11-28T23:08:17.335Z,31.30
2018-11-28T23:10:47.010Z,31.20
2018-11-28T23:13:17.758Z,32.40
2018-11-28T23:15:47.078Z,31.10
2018-11-28T23:18:16.469Z,31.82
2018-11-28T23:20:45.813Z,34.73
2018-11-28T23:23:15.206Z,34.92
2018-11-28T23:25:44.621Z,33.83
2018-11-28T23:28:14.061Z,31.87
2018-11-28T23:30:43.418Z,33.60
2018-11-28T23:33:16.076Z,34.18
2018-11-28T23:35:42.194Z,33.78
2018-11-28T23:38:11.581Z,33.33
2018-11-28T23:40:41.119Z,35.15
2018-11-28T23:43:10.447Z,33.20
2018-11-28T23:45:39.849Z,33.45
2018-11-28T23:48:09.201Z,33.53
2018-11-28T23:50:38.600Z,32.40
2018-11-28T23:53:07.969Z,36.85
2018-11-28T23:55:37.331Z,33.35
2018-11-28T23:58:06.698Z,32.93
